createdAt,value
2022-12-09T00:01:23.661Z,9.07
2022-12-09T00:03:56.953Z,11.07
2022-12-09T00:06:30.376Z,9.38
2022-12-09T00:09:03.173Z,9.32
2022-12-09T00:11:36.031Z,9.27
2022-12-09T00:14:10.157Z,10.88
2022-12-09T00:16:43.074Z,11.80
2022-12-09T00:19:15.944Z,10.32
2022-12-09T00:21:48.770Z,10.57
2022-12-09T00:24:21.463Z,9.50
2022-12-09T00:26:53.963Z,9.65
2022-12-09T00:29:26.733Z,10.85
2022-12-09T00:31:59.425Z,9.73
2022-12-09T00:34:32.085Z,10.57
2022-12-09T00:37:04.751Z,11.23
2022-12-09T00:39:37.427Z,10.50
2022-12-09T00:42:10.016Z,10.70
2022-12-09T00:44:42.686Z,10.07
2022-12-09T00:47:15.343Z,9.63
2022-12-09T00:49:48.219Z,11.25
2022-12-09T00:52:20.769Z,11.07
2022-12-09T00:54:53.540Z,10.43
2022-12-09T00:57:26.123Z,10.30
2022-12-09T01:00:01.340Z,11.65
2022-12-09T01:02:35.852Z,11.43
2022-12-09T01:05:09.213Z,10.65
2022-12-09T01:07:42.171Z,11.95
2022-12-09T01:10:15.036Z,11.02
2022-12-09T01:12:47.974Z,11.13
2022-12-09T01:15:20.649Z,10.40
2022-12-09T01:17:53.227Z,9.88
2022-12-09T01:20:26.289Z,11.30
2022-12-09T01:22:59.064Z,10.82
2022-12-09T01:25:31.716Z,11.10
2022-12-09T01:28:04.566Z,11.23
2022-12-09T01:30:37.174Z,10.25
2022-12-09T01:33:09.972Z,11.40
2022-12-09T01:35:42.650Z,11.30
2022-12-09T01:38:15.418Z,11.55
2022-12-09T01:40:48.357Z,11.57
2022-12-09T01:43:21.484Z,10.30
2022-12-09T01:45:54.874Z,12.60
2022-12-09T01:48:39.543Z,11.07
2022-12-09T01:51:19.618Z,10.65
2022-12-09T01:53:53.092Z,12.00
2022-12-09T01:56:33.198Z,11.73
2022-12-09T01:59:11.748Z,11.60
2022-12-09T02:01:50.264Z,12.10
2022-12-09T02:04:23.148Z,11.18
2022-12-09T02:07:02.221Z,11.18
2022-12-09T02:09:35.081Z,11.27
2022-12-09T02:12:14.045Z,13.63
2022-12-09T02:15:08.611Z,12.38
2022-12-09T02:17:50.858Z,11.70
2022-12-09T02:20:37.338Z,12.65
2022-12-09T02:23:35.680Z,12.48
2022-12-09T02:26:15.016Z,12.95
2022-12-09T02:29:04.505Z,12.63
2022-12-09T02:34:34.724Z,11.18
2022-12-09T02:37:19.601Z,12.15
2022-12-09T02:40:01.421Z,11.80
2022-12-09T02:42:38.455Z,13.23
2022-12-09T02:45:13.540Z,12.80
2022-12-09T02:47:53.103Z,13.20
2022-12-09T02:50:32.894Z,13.32
2022-12-09T02:53:11.061Z,13.30
2022-12-09T02:55:48.032Z,13.57
2022-12-09T02:58:20.789Z,13.13
2022-12-09T03:00:56.872Z,13.38
2022-12-09T03:06:13.257Z,12.15
2022-12-09T03:09:09.799Z,12.80
2022-12-09T03:11:43.235Z,12.98
2022-12-09T03:14:41.109Z,12.82
2022-12-09T03:17:21.863Z,12.63
2022-12-09T03:20:05.136Z,12.70
2022-12-09T03:22:43.489Z,12.55
2022-12-09T03:25:26.380Z,13.15
2022-12-09T03:30:41.180Z,10.88
2022-12-09T03:33:18.803Z,12.52
2022-12-09T03:36:00.831Z,13.00
2022-12-09T03:38:40.171Z,11.48
2022-12-09T03:41:30.438Z,12.48
2022-12-09T03:44:17.926Z,12.73
2022-12-09T03:46:50.837Z,13.18
2022-12-09T03:49:23.654Z,13.90
2022-12-09T03:52:21.084Z,12.05
2022-12-09T03:55:01.733Z,14.00
2022-12-09T03:57:41.021Z,13.25
2022-12-09T04:00:14.736Z,12.43
2022-12-09T04:02:48.307Z,13.38
2022-12-09T04:05:20.990Z,13.60
2022-12-09T04:07:53.868Z,12.77
2022-12-09T04:10:26.758Z,13.85
2022-12-09T04:12:59.544Z,14.25
2022-12-09T04:15:32.218Z,14.30
2022-12-09T04:18:05.100Z,14.77
2022-12-09T04:20:37.687Z,12.77
2022-12-09T04:23:10.567Z,14.20
2022-12-09T04:25:43.240Z,13.60
2022-12-09T04:28:15.884Z,15.40
2022-12-09T04:30:49.062Z,14.68
2022-12-09T04:33:22.202Z,13.60
2022-12-09T04:35:55.120Z,13.48
2022-12-09T04:38:27.680Z,14.15
2022-12-09T04:41:01.629Z,13.40
2022-12-09T04:43:34.553Z,13.13
2022-12-09T04:46:12.904Z,13.77
2022-12-09T04:48:47.044Z,14.68
2022-12-09T04:51:19.638Z,14.13
2022-12-09T04:53:52.633Z,12.80
2022-12-09T04:56:25.594Z,12.82
2022-12-09T04:58:58.668Z,13.60
2022-12-09T05:01:31.887Z,12.02
2022-12-09T05:04:05.627Z,13.00
2022-12-09T05:06:38.726Z,13.20
2022-12-09T05:09:17.723Z,13.40
2022-12-09T05:11:52.638Z,13.38
2022-12-09T05:14:25.815Z,13.00
2022-12-09T05:17:03.176Z,15.57
2022-12-09T05:19:41.566Z,13.88
2022-12-09T05:22:19.510Z,14.52
2022-12-09T05:24:54.819Z,13.30
2022-12-09T05:27:29.895Z,15.13
2022-12-09T05:30:06.323Z,15.35
2022-12-09T05:32:40.363Z,13.88
2022-12-09T05:35:13.752Z,13.68
2022-12-09T05:37:49.246Z,15.48
2022-12-09T05:40:25.482Z,15.68
2022-12-09T05:42:58.484Z,14.63
2022-12-09T05:45:31.223Z,15.85
2022-12-09T05:48:04.531Z,15.90
2022-12-09T05:50:37.757Z,15.90
2022-12-09T05:53:10.634Z,12.95
2022-12-09T05:55:43.635Z,15.27
2022-12-09T05:58:18.895Z,14.30
2022-12-09T06:00:52.099Z,15.18
2022-12-09T06:03:25.442Z,15.57
2022-12-09T06:05:58.869Z,15.32
2022-12-09T06:08:35.513Z,15.27
2022-12-09T06:13:47.918Z,12.52
2022-12-09T06:16:22.839Z,13.32
2022-12-09T06:18:56.284Z,12.88
2022-12-09T06:21:29.849Z,14.77
2022-12-09T06:24:02.584Z,13.85
2022-12-09T06:26:35.584Z,13.18
2022-12-09T06:29:09.316Z,13.68
2022-12-09T06:31:42.282Z,13.60
2022-12-09T06:34:15.897Z,14.90
2022-12-09T06:36:48.637Z,12.68
2022-12-09T06:39:21.669Z,12.73
2022-12-09T06:41:54.933Z,14.98
2022-12-09T06:44:27.981Z,14.57
2022-12-09T06:47:00.564Z,14.82
2022-12-09T06:49:36.566Z,14.13
2022-12-09T06:52:09.748Z,14.48
2022-12-09T06:54:46.768Z,14.18
2022-12-09T06:57:21.190Z,14.20
2022-12-09T06:59:56.316Z,13.60
2022-12-09T07:02:32.729Z,13.02
2022-12-09T07:05:13.028Z,12.02
2022-12-09T07:07:53.910Z,13.60
2022-12-09T07:10:26.640Z,12.23
2022-12-09T07:12:59.940Z,12.73
2022-12-09T07:15:33.379Z,12.25
2022-12-09T07:18:07.935Z,12.50
2022-12-09T07:20:41.102Z,13.00
2022-12-09T07:23:21.418Z,12.93
2022-12-09T07:25:57.876Z,14.23
2022-12-09T07:31:03.976Z,12.57
2022-12-09T07:33:37.464Z,13.35
2022-12-09T07:36:12.607Z,14.30
2022-12-09T07:38:47.611Z,13.40
2022-12-09T07:41:20.314Z,12.80
2022-12-09T07:43:55.893Z,13.63
2022-12-09T07:46:28.986Z,13.00
2022-12-09T07:49:04.573Z,13.07
2022-12-09T07:51:40.174Z,12.98
2022-12-09T07:54:15.808Z,13.23
2022-12-09T07:56:48.759Z,13.27
2022-12-09T07:59:22.336Z,12.02
2022-12-09T08:01:55.532Z,13.32
2022-12-09T08:04:32.819Z,14.10
2022-12-09T08:07:05.596Z,13.50
2022-12-09T08:09:40.296Z,12.55
2022-12-09T08:12:13.612Z,12.70
2022-12-09T08:14:49.473Z,12.82
2022-12-09T08:17:23.033Z,13.85
2022-12-09T08:19:57.233Z,13.23
2022-12-09T08:22:34.463Z,13.00
2022-12-09T08:25:08.349Z,13.02
2022-12-09T08:27:41.849Z,12.23
2022-12-09T08:30:15.329Z,13.48
2022-12-09T08:32:48.529Z,12.98
2022-12-09T08:35:21.727Z,13.52
2022-12-09T08:37:54.762Z,13.27
2022-12-09T08:40:27.934Z,12.68
2022-12-09T08:43:01.226Z,13.25
2022-12-09T08:45:39.933Z,12.20
2022-12-09T08:48:12.913Z,12.77
2022-12-09T08:50:49.873Z,13.27
2022-12-09T08:53:22.817Z,13.88
2022-12-09T08:55:56.000Z,13.25
2022-12-09T08:58:29.443Z,12.65
2022-12-09T09:01:05.719Z,12.93
2022-12-09T09:03:38.694Z,12.88
2022-12-09T09:06:13.753Z,13.75
2022-12-09T09:08:50.467Z,13.80
2022-12-09T09:11:24.166Z,12.50
2022-12-09T09:13:57.781Z,14.50
2022-12-09T09:16:30.614Z,13.95
2022-12-09T09:19:06.156Z,12.75
2022-12-09T09:21:40.070Z,14.30
2022-12-09T09:24:18.156Z,13.20
2022-12-09T09:26:54.002Z,15.07
2022-12-09T09:29:27.007Z,12.05
2022-12-09T09:32:02.848Z,13.35
2022-12-09T09:34:36.100Z,13.07
2022-12-09T09:37:09.462Z,13.15
2022-12-09T09:39:42.625Z,12.93
2022-12-09T09:42:24.246Z,9.63
2022-12-09T09:44:58.953Z,11.27
2022-12-09T09:47:48.757Z,10.10
2022-12-09T09:50:40.233Z,10.80
2022-12-09T09:53:30.877Z,12.23
2022-12-09T09:56:26.217Z,10.20
2022-12-09T09:59:21.330Z,10.32
2022-12-09T10:02:59.568Z,9.45
2022-12-09T10:05:53.724Z,9.85
2022-12-09T10:08:59.336Z,9.15
2022-12-09T10:11:49.421Z,9.35
2022-12-09T10:14:42.877Z,9.23
2022-12-09T10:17:49.807Z,7.88
2022-12-09T10:20:29.687Z,7.30
2022-12-09T10:23:17.302Z,7.10
2022-12-09T10:26:03.224Z,8.88
2022-12-09T10:28:47.048Z,7.28
2022-12-09T10:31:20.307Z,6.20
2022-12-09T10:33:53.273Z,4.75
2022-12-09T10:36:35.725Z,6.47
2022-12-09T10:39:21.136Z,6.40
2022-12-09T10:42:16.811Z,7.50
2022-12-09T10:44:49.828Z,8.23
2022-12-09T10:47:29.465Z,8.45
2022-12-09T10:50:06.434Z,7.60
2022-12-09T10:52:46.097Z,8.25
2022-12-09T10:55:37.335Z,8.18
2022-12-09T10:58:32.578Z,8.18
2022-12-09T11:01:10.446Z,8.05
2022-12-09T11:03:55.128Z,7.80
2022-12-09T11:06:38.194Z,7.40
2022-12-09T11:09:31.260Z,8.60
2022-12-09T11:12:20.262Z,7.72
2022-12-09T11:14:59.863Z,8.95
2022-12-09T11:17:40.730Z,8.70
2022-12-09T11:20:20.239Z,7.72
2022-12-09T11:23:04.671Z,8.32
2022-12-09T11:25:38.485Z,8.43
2022-12-09T11:28:18.022Z,8.15
2022-12-09T11:31:28.324Z,8.30
2022-12-09T11:34:03.234Z,9.25
2022-12-09T11:36:45.703Z,9.23
2022-12-09T11:39:34.696Z,8.80
2022-12-09T11:42:19.951Z,9.20
2022-12-09T11:45:24.902Z,9.30
2022-12-09T11:48:27.496Z,9.10
2022-12-09T11:51:02.455Z,9.68
2022-12-09T11:53:41.194Z,9.55
2022-12-09T11:56:25.775Z,9.05
2022-12-09T11:59:11.893Z,7.82
2022-12-09T12:01:58.076Z,7.82
2022-12-09T12:04:42.135Z,7.30
2022-12-09T12:07:29.601Z,7.38
2022-12-09T12:10:06.517Z,8.05
2022-12-09T12:12:55.045Z,7.00
2022-12-09T12:18:22.420Z,6.13
2022-12-09T12:21:03.710Z,6.35
2022-12-09T12:24:05.675Z,6.53
2022-12-09T12:27:08.683Z,7.25
2022-12-09T12:30:05.379Z,7.50
2022-12-09T12:34:07.672Z,8.07
2022-12-09T12:37:12.221Z,7.10
2022-12-09T12:40:29.827Z,6.63
2022-12-09T12:44:20.869Z,6.85
2022-12-09T12:47:22.104Z,7.00
2022-12-09T12:50:09.306Z,6.50
2022-12-09T12:53:03.353Z,6.75
2022-12-09T12:55:57.541Z,7.30
2022-12-09T12:58:58.233Z,6.63
2022-12-09T13:02:31.389Z,8.25
2022-12-09T13:05:18.396Z,6.72
2022-12-09T13:08:20.008Z,7.32
2022-12-09T13:10:57.593Z,7.15
2022-12-09T13:13:43.828Z,7.15
2022-12-09T13:16:34.493Z,7.65
2022-12-09T13:19:32.516Z,8.00
2022-12-09T13:22:11.378Z,7.70
2022-12-09T13:25:00.737Z,6.82
2022-12-09T13:30:22.533Z,6.53
2022-12-09T13:33:52.725Z,7.50
2022-12-09T13:36:41.208Z,6.03
2022-12-09T13:39:39.265Z,7.35
2022-12-09T13:42:46.587Z,8.18
2022-12-09T13:45:36.369Z,7.22
2022-12-09T13:48:16.446Z,7.05
2022-12-09T13:50:49.985Z,6.72
2022-12-09T13:53:35.265Z,7.20
2022-12-09T13:56:16.515Z,7.40
2022-12-09T13:59:21.051Z,7.32
2022-12-09T14:02:40.012Z,7.18
2022-12-09T14:05:22.167Z,7.05
2022-12-09T14:08:16.871Z,7.32
2022-12-09T14:10:50.697Z,7.78
2022-12-09T14:13:38.073Z,7.32
2022-12-09T14:16:27.884Z,6.47
2022-12-09T14:19:23.421Z,8.00
2022-12-09T14:22:21.166Z,6.63
2022-12-09T14:25:19.106Z,7.97
2022-12-09T14:28:10.219Z,7.88
2022-12-09T14:30:45.857Z,7.78
2022-12-09T14:33:31.534Z,6.63
2022-12-09T14:36:24.026Z,7.65
2022-12-09T14:39:24.979Z,7.53
2022-12-09T14:42:07.991Z,6.55
2022-12-09T14:45:16.421Z,7.20
2022-12-09T14:47:49.178Z,7.70
2022-12-09T14:50:26.788Z,7.78
2022-12-09T14:53:04.764Z,7.15
2022-12-09T14:55:41.346Z,7.75
2022-12-09T14:58:21.391Z,7.40
2022-12-09T15:01:04.106Z,7.72
2022-12-09T15:03:45.214Z,6.93
2022-12-09T15:06:19.873Z,6.55
2022-12-09T15:08:59.754Z,7.05
2022-12-09T15:11:36.014Z,8.45
2022-12-09T15:14:31.094Z,7.93
2022-12-09T15:17:05.196Z,7.80
2022-12-09T15:22:34.037Z,8.13
2022-12-09T15:25:18.785Z,8.55
2022-12-09T15:28:13.690Z,8.43
2022-12-09T15:30:55.581Z,7.70
2022-12-09T15:33:42.065Z,7.85
2022-12-09T15:36:21.234Z,8.02
2022-12-09T15:39:05.796Z,6.90
2022-12-09T15:42:05.527Z,6.82
2022-12-09T15:44:49.202Z,8.10
2022-12-09T15:47:39.035Z,8.65
2022-12-09T15:50:51.649Z,7.82
2022-12-09T15:53:44.695Z,8.90
2022-12-09T15:56:30.678Z,9.00
2022-12-09T15:59:18.512Z,7.57
2022-12-09T16:01:56.049Z,15.32
2022-12-09T16:04:36.948Z,16.27
2022-12-09T16:07:13.378Z,9.52
2022-12-09T16:10:18.005Z,7.72
2022-12-09T16:13:07.626Z,10.07
2022-12-09T16:18:47.399Z,10.82
2022-12-09T16:21:29.417Z,9.13
2022-12-09T16:24:12.976Z,8.05
2022-12-09T16:26:51.441Z,9.02
2022-12-09T16:29:36.345Z,8.35
2022-12-09T16:32:34.198Z,7.40
2022-12-09T16:35:21.790Z,8.23
2022-12-09T16:37:57.583Z,8.82
2022-12-09T16:40:31.862Z,9.27
2022-12-09T16:43:16.737Z,7.95
2022-12-09T16:46:20.882Z,8.65
2022-12-09T16:48:53.471Z,9.82
2022-12-09T16:51:26.037Z,9.65
2022-12-09T16:53:59.759Z,9.32
2022-12-09T16:56:32.952Z,7.43
2022-12-09T16:59:05.778Z,9.75
2022-12-09T17:01:42.288Z,9.38
2022-12-09T17:04:23.153Z,9.27
2022-12-09T17:06:56.242Z,9.80
2022-12-09T17:09:28.739Z,9.23
2022-12-09T17:12:01.404Z,8.60
2022-12-09T17:14:34.048Z,8.70
2022-12-09T17:17:06.850Z,9.32
2022-12-09T17:19:42.036Z,10.10
2022-12-09T17:22:14.669Z,10.98
2022-12-09T17:24:47.209Z,17.77
2022-12-09T17:27:19.757Z,10.18
2022-12-09T17:29:52.277Z,9.75
2022-12-09T17:32:26.240Z,10.38
2022-12-09T17:34:58.847Z,10.68
2022-12-09T17:37:31.321Z,8.93
2022-12-09T17:40:04.280Z,8.98
2022-12-09T17:42:36.849Z,9.57
2022-12-09T17:45:10.080Z,10.77
2022-12-09T17:47:42.848Z,11.55
2022-12-09T17:50:15.445Z,8.90
2022-12-09T17:52:47.978Z,9.75
2022-12-09T17:55:20.511Z,11.02
2022-12-09T17:57:54.341Z,9.45
2022-12-09T18:00:27.070Z,9.38
2022-12-09T18:02:59.993Z,10.02
2022-12-09T18:05:35.808Z,11.05
2022-12-09T18:08:08.452Z,13.07
2022-12-09T18:10:42.035Z,10.98
2022-12-09T18:13:14.543Z,10.52
2022-12-09T18:15:52.590Z,10.02
2022-12-09T18:18:28.728Z,10.15
2022-12-09T18:21:02.085Z,11.25
2022-12-09T18:23:35.262Z,10.20
2022-12-09T18:26:10.692Z,11.85
2022-12-09T18:28:44.041Z,11.07
2022-12-09T18:31:21.404Z,9.70
2022-12-09T18:33:54.113Z,9.70
2022-12-09T18:36:29.170Z,10.35
2022-12-09T18:39:01.768Z,11.70
2022-12-09T18:41:35.064Z,8.30
2022-12-09T18:44:08.342Z,8.63
2022-12-09T18:46:48.757Z,11.65
2022-12-09T18:49:24.720Z,11.77
2022-12-09T18:51:57.260Z,10.77
2022-12-09T18:54:32.405Z,10.30
2022-12-09T18:57:04.974Z,10.98
2022-12-09T18:59:37.495Z,11.15
2022-12-09T19:02:11.730Z,10.25
2022-12-09T19:04:44.483Z,11.85
2022-12-09T19:07:16.954Z,10.00
2022-12-09T19:09:49.516Z,10.02
2022-12-09T19:15:14.646Z,10.98
2022-12-09T19:17:47.275Z,10.82
2022-12-09T19:20:19.874Z,10.55
2022-12-09T19:22:52.615Z,11.15
2022-12-09T19:25:25.211Z,9.50
2022-12-09T19:27:57.736Z,10.13
2022-12-09T19:30:30.283Z,10.88
2022-12-09T19:33:02.838Z,10.45
2022-12-09T19:35:36.185Z,9.75
2022-12-09T19:38:08.797Z,10.52
2022-12-09T19:40:41.350Z,9.50
2022-12-09T19:43:13.950Z,8.63
2022-12-09T19:45:46.512Z,10.02
2022-12-09T19:48:19.126Z,10.43
2022-12-09T19:50:51.669Z,10.90
2022-12-09T19:53:24.190Z,12.40
2022-12-09T19:56:01.337Z,11.48
2022-12-09T19:58:37.575Z,10.73
2022-12-09T20:01:15.199Z,10.73
2022-12-09T20:03:51.671Z,11.18
2022-12-09T20:06:24.339Z,10.98
2022-12-09T20:08:59.529Z,9.57
2022-12-09T20:11:34.400Z,12.90
2022-12-09T20:14:10.828Z,9.52
2022-12-09T20:16:43.407Z,11.85
2022-12-09T20:19:16.035Z,10.98
2022-12-09T20:21:48.839Z,8.85
2022-12-09T20:24:21.381Z,10.80
2022-12-09T20:26:55.911Z,10.65
2022-12-09T20:29:32.567Z,9.68
2022-12-09T20:32:10.080Z,9.90
2022-12-09T20:34:42.767Z,10.90
2022-12-09T20:37:15.346Z,10.73
2022-12-09T20:39:47.897Z,10.63
2022-12-09T20:42:20.458Z,10.30
2022-12-09T20:44:53.042Z,9.95
2022-12-09T20:47:25.512Z,10.15
2022-12-09T20:49:58.145Z,9.70
2022-12-09T20:52:30.734Z,11.55
2022-12-09T20:55:03.895Z,11.55
2022-12-09T20:57:36.446Z,11.23
2022-12-09T21:00:10.230Z,10.50
2022-12-09T21:02:42.912Z,11.38
2022-12-09T21:05:15.478Z,12.63
2022-12-09T21:07:48.043Z,11.57
2022-12-09T21:10:20.577Z,12.13
2022-12-09T21:12:53.053Z,11.98
2022-12-09T21:15:25.909Z,13.23
2022-12-09T21:17:58.482Z,14.30
2022-12-09T21:20:31.047Z,14.35
2022-12-09T21:23:32.336Z,12.10
2022-12-09T21:25:56.210Z,11.23
2022-12-09T21:28:28.959Z,14.00
2022-12-09T21:31:15.220Z,13.27
2022-12-09T21:33:50.322Z,13.80
2022-12-09T21:36:32.301Z,10.65
2022-12-09T21:39:06.500Z,11.52
2022-12-09T21:41:39.108Z,10.45
2022-12-09T21:44:17.212Z,10.23
2022-12-09T21:46:49.795Z,12.55
2022-12-09T21:49:22.451Z,10.77
2022-12-09T21:51:54.946Z,10.70
2022-12-09T21:54:27.447Z,10.93
2022-12-09T21:56:59.951Z,11.77
2022-12-09T21:59:32.535Z,13.50
2022-12-09T22:02:05.159Z,12.85
2022-12-09T22:04:37.808Z,14.18
2022-12-09T22:07:10.325Z,11.30
2022-12-09T22:09:43.060Z,11.50
2022-12-09T22:12:15.556Z,11.02
2022-12-09T22:14:48.053Z,14.70
2022-12-09T22:17:20.637Z,11.25
2022-12-09T22:20:22.618Z,12.77
2022-12-09T22:22:46.891Z,10.07
2022-12-09T22:25:19.393Z,9.45
2022-12-09T22:27:51.928Z,13.52
2022-12-09T22:30:24.576Z,13.30
2022-12-09T22:32:57.123Z,11.73
2022-12-09T22:35:29.957Z,10.30
2022-12-09T22:38:08.348Z,11.32
2022-12-09T22:40:44.345Z,11.02
2022-12-09T22:43:16.853Z,11.88
2022-12-09T22:45:49.375Z,11.82
2022-12-09T22:48:21.847Z,11.88
2022-12-09T22:50:54.384Z,11.13
2022-12-09T22:53:26.913Z,11.23
2022-12-09T22:56:00.324Z,11.20
2022-12-09T22:58:35.210Z,11.88
2022-12-09T23:01:23.813Z,11.20
2022-12-09T23:03:58.526Z,11.23
2022-12-09T23:06:31.183Z,11.05
2022-12-09T23:09:06.229Z,11.23
2022-12-09T23:11:38.792Z,11.38
2022-12-09T23:14:11.611Z,11.43
2022-12-09T23:16:44.864Z,11.68
2022-12-09T23:19:17.606Z,12.65
2022-12-09T23:21:50.232Z,10.50
2022-12-09T23:24:24.873Z,11.45
2022-12-09T23:26:57.656Z,10.15
2022-12-09T23:29:30.147Z,13.05
2022-12-09T23:32:02.615Z,9.90
2022-12-09T23:34:35.196Z,11.93
2022-12-09T23:37:07.718Z,12.05
2022-12-09T23:39:40.340Z,12.15
2022-12-09T23:42:12.851Z,12.38
2022-12-09T23:44:45.412Z,11.23
2022-12-09T23:47:17.898Z,10.32
2022-12-09T23:49:50.424Z,12.65
2022-12-09T23:52:22.883Z,11.38
2022-12-09T23:54:58.504Z,11.73
2022-12-09T23:57:35.069Z,12.25
